Time;durP1;ratioP1;P1;durP2;ratioP2;P2;SDS_P1;SDS_P2;PMS_P1;PMS_P2;Temp;Humidity;BMP_temperature;BMP_pressure;BME280_temperature;BME280_humidity;BME280_pressure;Samples;Min_cycle;Max_cycle;Signal;HPM_P1;HPM_P2
2022/09/06 00:00:58;;;;;;;2.05;1.80;;;;;;;;;;1735208;80;21514;-73
2022/09/06 00:03:26;;;;;;;2.27;1.70;;;;;;;;;;1746839;80;21513;-74
2022/09/06 00:05:52;;;;;;;2.67;2.00;;;;;;;;;;1746185;80;21100;-73
2022/09/06 00:08:18;;;;;;;2.52;1.62;;;;;;;;;;1751553;80;21052;-73
2022/09/06 00:10:46;;;;;;;2.90;1.90;;;;;;;;;;1748952;80;22303;-73
2022/09/06 00:13:14;;;;;;;3.37;1.90;;;;;;;;;;1746979;80;21040;-74
2022/09/06 00:15:41;;;;;;;3.60;2.00;;;;;;;;;;1718505;82;21038;-74
2022/09/06 00:18:07;;;;;;;3.30;1.80;;;;;;;;;;1720101;82;21054;-74
2022/09/06 00:20:33;;;;;;;2.75;2.00;;;;;;;;;;1689053;83;21072;-74
2022/09/06 00:23:02;;;;;;;2.50;1.60;;;;;;;;;;1716441;82;21530;-74
2022/09/06 00:25:28;;;;;;;3.15;1.95;;;;;;;;;;1702374;82;21033;-73
2022/09/06 00:27:56;;;;;;;2.47;1.80;;;;;;;;;;1683936;83;21022;-73
2022/09/06 00:30:22;;;;;;;4.47;1.90;;;;;;;;;;1683366;85;21037;-73
2022/09/06 00:32:49;;;;;;;3.47;2.10;;;;;;;;;;1676046;85;21124;-74
2022/09/06 00:35:15;;;;;;;4.95;2.00;;;;;;;;;;1677214;85;21002;-73
2022/09/06 00:37:42;;;;;;;4.97;2.20;;;;;;;;;;1679323;85;21069;-74
2022/09/06 00:40:08;;;;;;;3.80;1.77;;;;;;;;;;1672022;85;20993;-74
2022/09/06 00:42:36;;;;;;;4.60;2.00;;;;;;;;;;1680890;85;21077;-74
2022/09/06 00:45:02;;;;;;;2.77;1.87;;;;;;;;;;1681836;85;21025;-73
2022/09/06 00:47:28;;;;;;;2.87;2.22;;;;;;;;;;1676859;85;21030;-74
2022/09/06 00:49:55;;;;;;;3.12;1.80;;;;;;;;;;1709522;82;21061;-73
2022/09/06 00:52:21;;;;;;;4.53;2.00;;;;;;;;;;1710978;82;21127;-75
2022/09/06 00:54:48;;;;;;;5.83;2.35;;;;;;;;;;1683275;83;21002;-74
2022/09/06 00:57:14;;;;;;;2.80;1.85;;;;;;;;;;1675935;83;21105;-73
2022/09/06 00:59:40;;;;;;;6.25;2.10;;;;;;;;;;1678235;85;21084;-73
2022/09/06 01:05:02;;;;;;;3.12;1.92;;;;;;;;;;1758045;77;74823;-69
2022/09/06 01:07:46;;;;;;;3.70;2.15;;;;;;;;;;1760928;80;20976;-69
2022/09/06 01:10:31;;;;;;;3.10;1.70;;;;;;;;;;1750937;80;21068;-69
2022/09/06 01:13:13;;;;;;;3.25;1.85;;;;;;;;;;1751984;80;21055;-69
2022/09/06 01:15:42;;;;;;;3.08;2.10;;;;;;;;;;1751191;80;21527;-69
2022/09/06 01:18:19;;;;;;;4.22;2.00;;;;;;;;;;1753282;80;21048;-69
2022/09/06 01:20:56;;;;;;;3.33;1.92;;;;;;;;;;1752585;80;21039;-70
2022/09/06 01:23:27;;;;;;;2.52;1.75;;;;;;;;;;1755205;80;21523;-68
2022/09/06 01:25:58;;;;;;;5.58;2.17;;;;;;;;;;1752753;80;21084;-68
2022/09/06 01:28:32;;;;;;;5.20;1.98;;;;;;;;;;1750108;80;21020;-68
2022/09/06 01:31:19;;;;;;;3.80;2.10;;;;;;;;;;1742039;81;21092;-68
2022/09/06 01:34:03;;;;;;;8.05;2.50;;;;;;;;;;1724579;81;21526;-69
2022/09/06 01:36:43;;;;;;;2.98;2.10;;;;;;;;;;1721334;82;21529;-69
2022/09/06 01:39:13;;;;;;;2.62;2.00;;;;;;;;;;1722716;82;21014;-69
2022/09/06 01:41:40;;;;;;;4.10;2.37;;;;;;;;;;1740811;80;21078;-69
2022/09/06 01:44:06;;;;;;;4.20;2.10;;;;;;;;;;1741881;80;21039;-69
2022/09/06 01:46:33;;;;;;;3.52;2.40;;;;;;;;;;1752711;80;21018;-69
2022/09/06 01:49:04;;;;;;;3.62;2.35;;;;;;;;;;1731171;80;20993;-68
2022/09/06 01:51:31;;;;;;;3.70;2.35;;;;;;;;;;1702406;83;21043;-68
2022/09/06 01:54:03;;;;;;;4.72;2.30;;;;;;;;;;1697059;82;21064;-69
2022/09/06 01:56:31;;;;;;;4.45;2.50;;;;;;;;;;1757743;80;21032;-68
2022/09/06 01:59:16;;;;;;;4.40;2.50;;;;;;;;;;1759604;80;21087;-69
2022/09/06 02:01:50;;;;;;;3.42;2.33;;;;;;;;;;1755304;80;21024;-69
2022/09/06 02:04:19;;;;;;;4.92;2.47;;;;;;;;;;1718599;82;21021;-68
2022/09/06 02:06:46;;;;;;;5.20;2.77;;;;;;;;;;1717431;82;21040;-69
2022/09/06 02:09:16;;;;;;;6.37;2.80;;;;;;;;;;1714549;82;21149;-68
2022/09/06 02:11:44;;;;;;;3.58;2.50;;;;;;;;;;1717554;82;21038;-68
2022/09/06 02:14:12;;;;;;;4.37;2.62;;;;;;;;;;1716954;82;21564;-68
2022/09/06 02:16:38;;;;;;;3.98;2.62;;;;;;;;;;1717862;82;21076;-69
2022/09/06 02:19:07;;;;;;;5.08;2.75;;;;;;;;;;1724279;82;21011;-69
2022/09/06 02:21:36;;;;;;;7.25;3.08;;;;;;;;;;1721789;82;21529;-68
2022/09/06 02:24:04;;;;;;;5.28;3.02;;;;;;;;;;1737901;81;22083;-69
2022/09/06 02:26:31;;;;;;;6.70;3.40;;;;;;;;;;1701807;82;21030;-69
2022/09/06 02:28:58;;;;;;;4.42;3.37;;;;;;;;;;1702274;82;21644;-69
2022/09/06 02:31:26;;;;;;;4.78;2.85;;;;;;;;;;1698306;82;21540;-69
2022/09/06 02:33:52;;;;;;;6.08;3.10;;;;;;;;;;1701605;82;21013;-68
2022/09/06 02:36:19;;;;;;;6.05;3.58;;;;;;;;;;1702404;82;21292;-68
2022/09/06 02:38:46;;;;;;;5.30;3.52;;;;;;;;;;1726583;81;21072;-68
2022/09/06 02:41:13;;;;;;;5.72;2.98;;;;;;;;;;1723231;81;21025;-69
2022/09/06 02:43:41;;;;;;;6.58;3.12;;;;;;;;;;1690257;83;21104;-68
2022/09/06 02:46:07;;;;;;;5.35;3.40;;;;;;;;;;1699661;83;21018;-68
2022/09/06 02:48:35;;;;;;;5.90;3.37;;;;;;;;;;1724612;81;21095;-69
2022/09/06 02:51:02;;;;;;;5.40;2.95;;;;;;;;;;1701391;83;20978;-68
2022/09/06 02:53:28;;;;;;;4.80;3.12;;;;;;;;;;1728980;81;21037;-68
2022/09/06 02:55:55;;;;;;;5.15;3.17;;;;;;;;;;1733140;82;21033;-69
2022/09/06 02:58:21;;;;;;;6.03;3.75;;;;;;;;;;1733656;82;20997;-70
2022/09/06 03:00:48;;;;;;;6.55;3.05;;;;;;;;;;1686003;83;21146;-69
2022/09/06 03:03:15;;;;;;;4.87;3.40;;;;;;;;;;1720762;82;21615;-68
2022/09/06 03:05:41;;;;;;;5.67;3.20;;;;;;;;;;1711872;81;20986;-68
2022/09/06 03:08:07;;;;;;;6.87;3.02;;;;;;;;;;1662539;85;21064;-68
2022/09/06 03:10:34;;;;;;;4.62;3.00;;;;;;;;;;1679033;84;21049;-68
2022/09/06 03:13:01;;;;;;;5.67;3.35;;;;;;;;;;1694330;83;21592;-68
2022/09/06 03:15:27;;;;;;;6.00;3.40;;;;;;;;;;1694495;83;21038;-68
2022/09/06 03:17:58;;;;;;;8.83;4.67;;;;;;;;;;1698866;83;21085;-68
2022/09/06 03:20:24;;;;;;;5.78;3.52;;;;;;;;;;1696188;83;21066;-69
2022/09/06 03:22:50;;;;;;;5.78;3.42;;;;;;;;;;1691138;83;21056;-68
2022/09/06 03:25:16;;;;;;;7.17;3.42;;;;;;;;;;1678922;84;21030;-69
2022/09/06 03:27:43;;;;;;;5.37;3.35;;;;;;;;;;1678030;84;21082;-69
2022/09/06 03:30:10;;;;;;;6.53;3.77;;;;;;;;;;1676344;84;21027;-69
2022/09/06 03:32:36;;;;;;;6.55;3.60;;;;;;;;;;1676536;84;21072;-69
2022/09/06 03:35:02;;;;;;;5.17;3.30;;;;;;;;;;1676285;84;21083;-69
2022/09/06 03:37:29;;;;;;;7.22;3.37;;;;;;;;;;1677390;84;21523;-69
2022/09/06 03:39:55;;;;;;;6.97;3.42;;;;;;;;;;1694007;83;21047;-69
2022/09/06 03:42:21;;;;;;;5.60;3.65;;;;;;;;;;1695423;83;21022;-68
2022/09/06 03:44:47;;;;;;;5.28;3.22;;;;;;;;;;1692302;83;21145;-68
2022/09/06 03:47:14;;;;;;;4.95;3.10;;;;;;;;;;1692432;83;22296;-69
2022/09/06 03:49:40;;;;;;;6.62;3.62;;;;;;;;;;1696470;83;21061;-68
2022/09/06 03:52:07;;;;;;;25.23;5.47;;;;;;;;;;1693720;83;21037;-68
2022/09/06 03:54:33;;;;;;;8.18;3.70;;;;;;;;;;1693443;83;21041;-68
2022/09/06 03:56:59;;;;;;;6.37;3.22;;;;;;;;;;1695947;83;21068;-68
2022/09/06 03:59:26;;;;;;;10.65;3.72;;;;;;;;;;1692487;83;21107;-68
2022/09/06 04:01:52;;;;;;;26.62;5.58;;;;;;;;;;1693275;83;21628;-68
2022/09/06 04:04:18;;;;;;;19.55;4.75;;;;;;;;;;1693685;83;22467;-68
2022/09/06 04:06:44;;;;;;;6.67;3.50;;;;;;;;;;1734867;81;21584;-68
2022/09/06 04:09:11;;;;;;;5.78;2.92;;;;;;;;;;1735153;81;21524;-68
2022/09/06 04:11:37;;;;;;;6.87;3.37;;;;;;;;;;1735151;81;21068;-68
2022/09/06 04:14:03;;;;;;;14.58;3.45;;;;;;;;;;1735514;81;20997;-68
2022/09/06 04:16:31;;;;;;;6.00;3.42;;;;;;;;;;1708175;82;21025;-68
2022/09/06 04:18:59;;;;;;;7.08;3.87;;;;;;;;;;1700058;83;21021;-68
2022/09/06 04:21:26;;;;;;;5.03;3.37;;;;;;;;;;1735180;81;21060;-68
2022/09/06 04:23:53;;;;;;;5.03;3.47;;;;;;;;;;1734862;81;21033;-68
2022/09/06 04:26:19;;;;;;;5.90;3.47;;;;;;;;;;1706645;83;21049;-68
2022/09/06 04:28:45;;;;;;;8.13;3.65;;;;;;;;;;1699226;83;21092;-68
2022/09/06 04:31:11;;;;;;;8.13;3.90;;;;;;;;;;1734343;81;21045;-69
2022/09/06 04:33:38;;;;;;;9.68;3.80;;;;;;;;;;1738234;81;21020;-69
2022/09/06 04:36:08;;;;;;;10.55;4.10;;;;;;;;;;1736776;82;21021;-69
2022/09/06 04:38:35;;;;;;;7.00;4.30;;;;;;;;;;1738021;81;21434;-68
2022/09/06 04:41:02;;;;;;;7.90;4.97;;;;;;;;;;1732798;81;21112;-69
2022/09/06 04:43:28;;;;;;;8.60;3.70;;;;;;;;;;1702102;83;21055;-68
2022/09/06 04:45:54;;;;;;;6.50;3.65;;;;;;;;;;1733353;81;21046;-68
2022/09/06 04:48:20;;;;;;;9.75;4.33;;;;;;;;;;1711398;82;22304;-68
2022/09/06 04:50:47;;;;;;;5.95;4.00;;;;;;;;;;1739961;81;21526;-68
2022/09/06 04:53:13;;;;;;;8.85;4.53;;;;;;;;;;1737212;81;21529;-68
2022/09/06 04:55:39;;;;;;;9.05;4.95;;;;;;;;;;1734562;81;21064;-68
2022/09/06 04:58:06;;;;;;;8.53;4.85;;;;;;;;;;1734729;81;21562;-68
2022/09/06 05:00:35;;;;;;;9.73;4.90;;;;;;;;;;1728478;81;21104;-67
2022/09/06 05:03:01;;;;;;;6.85;4.37;;;;;;;;;;1732126;81;21083;-67
2022/09/06 05:05:27;;;;;;;9.10;4.75;;;;;;;;;;1707294;83;21050;-68
2022/09/06 05:07:54;;;;;;;7.53;5.03;;;;;;;;;;1686848;83;21610;-68
2022/09/06 05:10:21;;;;;;;11.18;5.00;;;;;;;;;;1680226;84;21049;-68
2022/09/06 05:12:48;;;;;;;13.58;5.03;;;;;;;;;;1680545;84;21022;-68
2022/09/06 05:15:15;;;;;;;9.98;5.25;;;;;;;;;;1681692;84;21482;-67
2022/09/06 05:17:42;;;;;;;10.20;5.30;;;;;;;;;;1682812;84;21027;-67
2022/09/06 05:20:09;;;;;;;11.43;5.50;;;;;;;;;;1723728;82;21022;-67
2022/09/06 05:22:36;;;;;;;11.48;5.80;;;;;;;;;;1725259;82;21116;-68
2022/09/06 05:25:02;;;;;;;9.33;5.45;;;;;;;;;;1722345;82;21465;-68
2022/09/06 05:27:29;;;;;;;13.83;5.60;;;;;;;;;;1726784;82;21055;-68
2022/09/06 05:29:55;;;;;;;8.83;4.95;;;;;;;;;;1727817;83;21014;-68
2022/09/06 05:32:21;;;;;;;9.60;4.53;;;;;;;;;;1727077;82;21078;-67
2022/09/06 05:34:48;;;;;;;8.70;5.00;;;;;;;;;;1713143;83;21042;-67
2022/09/06 05:37:14;;;;;;;10.43;4.50;;;;;;;;;;1713226;82;21053;-68
2022/09/06 05:39:40;;;;;;;6.80;3.90;;;;;;;;;;1714175;82;21081;-67
2022/09/06 05:42:07;;;;;;;9.48;4.35;;;;;;;;;;1711486;83;21007;-67
2022/09/06 05:44:34;;;;;;;10.03;3.98;;;;;;;;;;1712076;83;20966;-68
2022/09/06 05:47:00;;;;;;;8.68;3.98;;;;;;;;;;1711370;82;21050;-67
2022/09/06 05:49:29;;;;;;;7.70;4.72;;;;;;;;;;1724644;82;21040;-68
2022/09/06 05:51:56;;;;;;;7.50;4.70;;;;;;;;;;1726059;82;21030;-68
2022/09/06 05:54:22;;;;;;;9.00;4.80;;;;;;;;;;1725867;82;21493;-69
2022/09/06 05:56:49;;;;;;;13.55;6.05;;;;;;;;;;1727827;82;21584;-67
2022/09/06 05:59:15;;;;;;;12.98;5.33;;;;;;;;;;1723380;83;21030;-67
2022/09/06 06:01:48;;;;;;;13.00;5.17;;;;;;;;;;1723385;83;21065;-67
2022/09/06 06:04:15;;;;;;;8.63;4.87;;;;;;;;;;1722009;83;21057;-67
2022/09/06 06:06:42;;;;;;;13.20;5.40;;;;;;;;;;1717885;83;21093;-67
2022/09/06 06:09:08;;;;;;;14.50;5.60;;;;;;;;;;1723529;83;20998;-67
2022/09/06 06:11:36;;;;;;;12.18;5.80;;;;;;;;;;1724608;83;21046;-67
2022/09/06 06:14:03;;;;;;;9.65;5.05;;;;;;;;;;1719567;83;21042;-67
2022/09/06 06:16:29;;;;;;;10.40;5.40;;;;;;;;;;1728199;83;21077;-67
2022/09/06 06:18:55;;;;;;;14.10;5.12;;;;;;;;;;1724474;83;21022;-67
2022/09/06 06:21:22;;;;;;;23.50;5.10;;;;;;;;;;1722529;83;20974;-67
2022/09/06 06:23:50;;;;;;;10.93;4.87;;;;;;;;;;1719629;83;21078;-67
2022/09/06 06:26:16;;;;;;;8.20;3.80;;;;;;;;;;1719147;82;21564;-67
2022/09/06 06:28:43;;;;;;;7.15;3.83;;;;;;;;;;1723350;82;21038;-68
2022/09/06 06:31:09;;;;;;;6.55;3.67;;;;;;;;;;1723358;82;21041;-68
2022/09/06 06:33:36;;;;;;;11.60;4.10;;;;;;;;;;1720847;82;21100;-67
2022/09/06 06:36:03;;;;;;;10.32;3.55;;;;;;;;;;1721504;83;21069;-68
2022/09/06 06:38:34;;;;;;;10.23;3.98;;;;;;;;;;1721238;83;21544;-68
2022/09/06 06:41:00;;;;;;;7.97;3.40;;;;;;;;;;1721922;83;21014;-68
2022/09/06 06:43:27;;;;;;;7.47;3.33;;;;;;;;;;1718594;82;21031;-68
2022/09/06 06:45:53;;;;;;;5.55;2.67;;;;;;;;;;1718390;83;21077;-68
2022/09/06 06:48:20;;;;;;;8.10;3.17;;;;;;;;;;1721049;82;21062;-68
2022/09/06 06:50:46;;;;;;;4.90;2.40;;;;;;;;;;1724757;82;21049;-68
2022/09/06 06:53:12;;;;;;;7.15;2.50;;;;;;;;;;1721342;82;21073;-68
2022/09/06 06:55:38;;;;;;;6.87;2.98;;;;;;;;;;1720128;82;21045;-68
2022/09/06 06:58:05;;;;;;;8.35;2.60;;;;;;;;;;1721923;83;21029;-68
2022/09/06 07:00:31;;;;;;;4.85;3.10;;;;;;;;;;1722439;83;21093;-68
2022/09/06 07:02:58;;;;;;;4.22;3.05;;;;;;;;;;1720985;82;21061;-67
2022/09/06 07:05:25;;;;;;;8.90;2.90;;;;;;;;;;1731025;81;21069;-68
2022/09/06 07:07:51;;;;;;;7.25;2.80;;;;;;;;;;1708209;83;21185;-70
2022/09/06 07:10:18;;;;;;;4.90;2.92;;;;;;;;;;1705567;82;21011;-70
2022/09/06 07:12:44;;;;;;;5.08;2.70;;;;;;;;;;1702168;82;21096;-71
2022/09/06 07:17:54;;;;;;;5.30;2.75;;;;;;;;;;1801284;78;22798;-70
2022/09/06 07:20:21;;;;;;;3.62;2.25;;;;;;;;;;1755504;80;21001;-70
2022/09/06 07:22:48;;;;;;;3.25;2.10;;;;;;;;;;1761414;81;21520;-69
2022/09/06 07:25:15;;;;;;;4.50;2.52;;;;;;;;;;1731577;81;21144;-69
2022/09/06 07:27:42;;;;;;;4.95;2.30;;;;;;;;;;1756793;80;21032;-69
2022/09/06 07:30:10;;;;;;;3.75;2.72;;;;;;;;;;1760456;80;21039;-67
2022/09/06 07:32:36;;;;;;;2.95;2.17;;;;;;;;;;1761341;80;21076;-68
2022/09/06 07:35:03;;;;;;;5.78;2.65;;;;;;;;;;1757982;80;21009;-69
2022/09/06 07:37:30;;;;;;;6.28;2.30;;;;;;;;;;1761458;80;21025;-69
2022/09/06 07:39:56;;;;;;;5.83;2.17;;;;;;;;;;1761117;80;21484;-68
2022/09/06 07:42:22;;;;;;;3.12;2.20;;;;;;;;;;1757302;81;21005;-70
2022/09/06 07:44:49;;;;;;;1.95;1.75;;;;;;;;;;1761513;81;21042;-71
2022/09/06 07:47:16;;;;;;;2.58;1.72;;;;;;;;;;1750337;80;21088;-68
2022/09/06 07:49:43;;;;;;;2.08;1.52;;;;;;;;;;1750181;80;21013;-69
2022/09/06 07:52:09;;;;;;;3.20;2.00;;;;;;;;;;1761166;80;21601;-71
2022/09/06 07:54:36;;;;;;;1.47;1.37;;;;;;;;;;1760826;81;21063;-70
2022/09/06 07:57:02;;;;;;;4.28;1.70;;;;;;;;;;1757740;80;21001;-70
2022/09/06 07:59:29;;;;;;;3.37;2.30;;;;;;;;;;1748667;80;21112;-69
2022/09/06 08:01:55;;;;;;;7.47;2.37;;;;;;;;;;1738348;82;21075;-71
2022/09/06 08:04:22;;;;;;;2.52;1.60;;;;;;;;;;1732327;82;21028;-70
2022/09/06 08:06:50;;;;;;;1.42;1.15;;;;;;;;;;1734746;82;21021;-73
2022/09/06 08:09:17;;;;;;;6.47;1.92;;;;;;;;;;1737553;82;21064;-71
2022/09/06 08:11:43;;;;;;;4.20;1.98;;;;;;;;;;1736149;82;21445;-70
2022/09/06 08:14:10;;;;;;;5.12;2.98;;;;;;;;;;1738204;82;21063;-70
2022/09/06 08:16:38;;;;;;;5.20;2.40;;;;;;;;;;1725002;81;21159;-69
2022/09/06 08:19:11;;;;;;;5.35;2.50;;;;;;;;;;1725945;82;21033;-69
2022/09/06 08:21:34;;;;;;;4.30;2.70;;;;;;;;;;1721831;82;20997;-68
2022/09/06 08:24:01;;;;;;;3.75;2.12;;;;;;;;;;1722072;82;21037;-68
2022/09/06 08:26:28;;;;;;;2.62;1.87;;;;;;;;;;1723329;82;21040;-69
2022/09/06 08:28:59;;;;;;;4.87;2.00;;;;;;;;;;1720292;82;21213;-69
2022/09/06 08:31:25;;;;;;;7.62;2.90;;;;;;;;;;1719223;82;21016;-69
2022/09/06 08:33:52;;;;;;;2.17;1.70;;;;;;;;;;1718814;82;21092;-69
2022/09/06 08:36:19;;;;;;;3.98;2.20;;;;;;;;;;1718982;82;20934;-69
2022/09/06 08:38:46;;;;;;;4.17;2.40;;;;;;;;;;1716657;82;21032;-69
2022/09/06 08:41:26;;;;;;;5.20;2.37;;;;;;;;;;1723793;82;21020;-71
2022/09/06 08:43:55;;;;;;;4.30;2.50;;;;;;;;;;1725602;82;21579;-70
2022/09/06 08:46:23;;;;;;;3.67;2.75;;;;;;;;;;1712142;82;21077;-69
2022/09/06 08:48:49;;;;;;;4.00;2.60;;;;;;;;;;1726835;82;21025;-69
2022/09/06 08:51:17;;;;;;;4.78;2.25;;;;;;;;;;1723174;82;21049;-68
2022/09/06 08:53:45;;;;;;;4.47;2.20;;;;;;;;;;1716311;82;21034;-68
2022/09/06 08:56:13;;;;;;;4.70;2.20;;;;;;;;;;1719443;82;21069;-68
2022/09/06 08:58:58;;;;;;;3.17;2.02;;;;;;;;;;1724037;82;21088;-67
2022/09/06 09:01:26;;;;;;;3.87;2.08;;;;;;;;;;1725821;82;21139;-68
2022/09/06 09:03:53;;;;;;;6.30;2.62;;;;;;;;;;1721460;82;21058;-68
2022/09/06 09:06:19;;;;;;;6.72;3.27;;;;;;;;;;1716462;82;21057;-68
2022/09/06 09:08:51;;;;;;;4.37;2.62;;;;;;;;;;1719777;82;21101;-68
2022/09/06 09:11:18;;;;;;;4.08;2.47;;;;;;;;;;1720080;82;21120;-69
2022/09/06 09:13:49;;;;;;;4.55;2.10;;;;;;;;;;1722834;82;21532;-69
2022/09/06 09:16:16;;;;;;;3.65;2.20;;;;;;;;;;1720962;82;21013;-71
2022/09/06 09:18:44;;;;;;;3.60;2.20;;;;;;;;;;1731768;82;21076;-70
2022/09/06 09:21:10;;;;;;;3.95;2.17;;;;;;;;;;1729528;82;21043;-73
2022/09/06 09:23:37;;;;;;;4.62;1.95;;;;;;;;;;1729862;82;21097;-69
2022/09/06 09:26:04;;;;;;;3.72;2.55;;;;;;;;;;1728565;82;21533;-69
2022/09/06 09:28:30;;;;;;;5.78;2.35;;;;;;;;;;1725552;82;21112;-70
2022/09/06 09:30:57;;;;;;;4.22;2.40;;;;;;;;;;1737749;82;21045;-68
2022/09/06 09:33:31;;;;;;;9.25;2.80;;;;;;;;;;1730829;81;21582;-69
2022/09/06 09:35:58;;;;;;;6.83;2.67;;;;;;;;;;1728061;82;22303;-69
2022/09/06 09:38:29;;;;;;;4.83;2.33;;;;;;;;;;1730659;82;21037;-68
2022/09/06 09:40:56;;;;;;;3.33;2.47;;;;;;;;;;1727893;82;20954;-68
2022/09/06 09:43:23;;;;;;;4.85;2.30;;;;;;;;;;1732019;82;21017;-74
2022/09/06 09:46:08;;;;;;;3.00;1.98;;;;;;;;;;1731310;82;21037;-70
2022/09/06 09:48:34;;;;;;;4.10;2.50;;;;;;;;;;1740432;82;21004;-69
2022/09/06 09:51:17;;;;;;;6.62;2.62;;;;;;;;;;1733205;82;21002;-68
2022/09/06 09:53:58;;;;;;;6.45;3.15;;;;;;;;;;1720279;82;21083;-68
2022/09/06 09:56:35;;;;;;;6.53;3.60;;;;;;;;;;1733056;82;21096;-70
2022/09/06 09:59:02;;;;;;;6.97;4.20;;;;;;;;;;1724313;82;21131;-70
2022/09/06 10:01:29;;;;;;;8.93;4.47;;;;;;;;;;1728682;82;21029;-70
2022/09/06 10:03:59;;;;;;;11.53;5.50;;;;;;;;;;1731358;82;21068;-71
2022/09/06 10:06:25;;;;;;;10.43;4.87;;;;;;;;;;1731567;82;21013;-72
2022/09/06 10:08:53;;;;;;;8.95;5.12;;;;;;;;;;1734114;82;20997;-71
2022/09/06 10:11:39;;;;;;;9.03;4.47;;;;;;;;;;1733639;82;21005;-70
2022/09/06 10:14:12;;;;;;;8.25;4.50;;;;;;;;;;1731965;82;21009;-69
2022/09/06 10:16:43;;;;;;;7.40;4.58;;;;;;;;;;1707939;82;21068;-68
2022/09/06 10:19:14;;;;;;;9.53;5.33;;;;;;;;;;1727789;82;21072;-67
2022/09/06 10:21:40;;;;;;;10.38;5.33;;;;;;;;;;1718381;82;21472;-67
2022/09/06 10:24:15;;;;;;;10.98;5.83;;;;;;;;;;1730669;82;21522;-66
2022/09/06 10:26:43;;;;;;;12.00;6.67;;;;;;;;;;1729898;82;21028;-67
2022/09/06 10:29:09;;;;;;;14.55;7.28;;;;;;;;;;1726915;82;21100;-66
2022/09/06 10:31:42;;;;;;;14.43;7.60;;;;;;;;;;1725644;82;21056;-68
2022/09/06 10:34:16;;;;;;;15.23;7.45;;;;;;;;;;1728301;82;22067;-68
2022/09/06 10:36:47;;;;;;;14.65;7.25;;;;;;;;;;1729881;81;21121;-67
2022/09/06 10:39:15;;;;;;;14.43;7.30;;;;;;;;;;1730301;82;21049;-68
2022/09/06 10:41:43;;;;;;;13.58;7.30;;;;;;;;;;1731033;82;21162;-68
2022/09/06 10:44:20;;;;;;;12.90;7.00;;;;;;;;;;1731536;82;21524;-69
2022/09/06 10:46:46;;;;;;;14.33;6.53;;;;;;;;;;1730033;82;21608;-69
2022/09/06 10:49:14;;;;;;;13.28;6.62;;;;;;;;;;1730627;82;21040;-69
2022/09/06 10:51:44;;;;;;;16.25;9.18;;;;;;;;;;1727413;82;21056;-69
2022/09/06 10:54:11;;;;;;;22.10;12.18;;;;;;;;;;1732572;82;21044;-69
2022/09/06 10:56:57;;;;;;;29.42;14.10;;;;;;;;;;1728501;82;20993;-69
2022/09/06 10:59:28;;;;;;;26.23;13.45;;;;;;;;;;1731025;82;21119;-67
2022/09/06 11:02:02;;;;;;;26.02;14.25;;;;;;;;;;1729393;82;21014;-67
2022/09/06 11:04:30;;;;;;;28.00;15.10;;;;;;;;;;1732971;82;21596;-68
2022/09/06 11:06:57;;;;;;;26.35;14.40;;;;;;;;;;1723956;82;21037;-68
2022/09/06 11:09:28;;;;;;;31.23;16.42;;;;;;;;;;1733499;82;22104;-69
2022/09/06 11:12:00;;;;;;;33.53;18.45;;;;;;;;;;1730946;82;21060;-67
2022/09/06 11:14:26;;;;;;;34.83;17.25;;;;;;;;;;1726612;82;21048;-67
2022/09/06 11:16:55;;;;;;;30.88;17.35;;;;;;;;;;1729571;82;21044;-68
2022/09/06 11:19:25;;;;;;;51.83;25.48;;;;;;;;;;1730921;82;20994;-68
2022/09/06 11:21:59;;;;;;;45.85;24.70;;;;;;;;;;1720467;82;21056;-68
2022/09/06 11:24:45;;;;;;;50.83;25.68;;;;;;;;;;1726434;82;21481;-68
2022/09/06 11:27:14;;;;;;;54.05;28.35;;;;;;;;;;1723674;82;21029;-68
2022/09/06 11:29:41;;;;;;;53.63;28.25;;;;;;;;;;1723279;82;21060;-69
2022/09/06 11:32:10;;;;;;;68.95;35.15;;;;;;;;;;1721659;82;21071;-68
2022/09/06 11:34:36;;;;;;;83.10;41.80;;;;;;;;;;1719530;82;21513;-68
2022/09/06 11:37:03;;;;;;;85.12;42.67;;;;;;;;;;1723937;82;21033;-68
2022/09/06 11:39:33;;;;;;;89.52;47.17;;;;;;;;;;1718931;82;21056;-68
2022/09/06 11:41:59;;;;;;;100.82;46.28;;;;;;;;;;1722151;82;21548;-67
2022/09/06 11:44:44;;;;;;;100.67;52.62;;;;;;;;;;1719812;82;21508;-67
2022/09/06 11:47:10;;;;;;;102.45;49.27;;;;;;;;;;1725279;82;21036;-68
2022/09/06 11:49:38;;;;;;;98.33;50.80;;;;;;;;;;1704896;82;21540;-69
2022/09/06 11:52:06;;;;;;;103.62;50.33;;;;;;;;;;1720984;82;21002;-72
2022/09/06 11:54:35;;;;;;;106.85;52.43;;;;;;;;;;1721152;82;21001;-69
2022/09/06 11:57:03;;;;;;;102.47;51.95;;;;;;;;;;1722407;82;20997;-67
2022/09/06 11:59:32;;;;;;;139.37;73.15;;;;;;;;;;1721209;82;21088;-66
2022/09/06 12:02:03;;;;;;;128.85;64.35;;;;;;;;;;1716018;82;21520;-68
2022/09/06 12:04:48;;;;;;;113.75;56.73;;;;;;;;;;1718692;82;22244;-67
2022/09/06 12:07:14;;;;;;;96.10;50.17;;;;;;;;;;1716553;82;21076;-69
2022/09/06 12:09:45;;;;;;;93.37;45.65;;;;;;;;;;1727295;82;21033;-70
2022/09/06 12:12:09;;;;;;;103.55;50.80;;;;;;;;;;1721020;82;20997;-69
2022/09/06 12:14:39;;;;;;;94.45;49.63;;;;;;;;;;1730158;82;21021;-69
2022/09/06 12:17:07;;;;;;;88.90;44.42;;;;;;;;;;1720034;82;21045;-71
2022/09/06 12:19:41;;;;;;;80.87;42.45;;;;;;;;;;1733207;82;21052;-73
2022/09/06 12:22:26;;;;;;;81.15;43.85;;;;;;;;;;1730942;82;21559;-71
2022/09/06 12:24:54;;;;;;;82.75;43.52;;;;;;;;;;1729017;82;21048;-71
2022/09/06 12:27:31;;;;;;;77.12;40.90;;;;;;;;;;1736071;82;21506;-71
2022/09/06 12:29:58;;;;;;;70.52;38.48;;;;;;;;;;1738393;82;21012;-71
2022/09/06 12:32:25;;;;;;;63.38;34.33;;;;;;;;;;1740745;80;21055;-71
2022/09/06 12:34:52;;;;;;;59.18;31.12;;;;;;;;;;1739353;82;21935;-73
2022/09/06 12:37:21;;;;;;;58.28;31.82;;;;;;;;;;1732335;82;21099;-71
2022/09/06 12:39:58;;;;;;;58.30;30.80;;;;;;;;;;1736314;82;21047;-72
2022/09/06 12:42:25;;;;;;;54.60;27.42;;;;;;;;;;1737513;82;21544;-71
2022/09/06 12:44:51;;;;;;;60.40;33.92;;;;;;;;;;1733588;82;21128;-72
2022/09/06 12:47:19;;;;;;;68.78;34.85;;;;;;;;;;1741707;82;20980;-71
2022/09/06 12:49:45;;;;;;;61.68;33.28;;;;;;;;;;1731478;81;21480;-72
2022/09/06 12:52:15;;;;;;;62.23;31.42;;;;;;;;;;1736915;82;21059;-71
2022/09/06 12:54:42;;;;;;;61.65;31.55;;;;;;;;;;1737160;82;20977;-72
2022/09/06 12:57:22;;;;;;;50.85;28.90;;;;;;;;;;1735502;82;20997;-71
2022/09/06 12:59:55;;;;;;;49.05;25.70;;;;;;;;;;1732275;82;21060;-72
2022/09/06 13:02:27;;;;;;;48.80;25.95;;;;;;;;;;1729171;82;22207;-72
2022/09/06 13:04:55;;;;;;;46.02;25.43;;;;;;;;;;1732508;82;21583;-71
2022/09/06 13:07:21;;;;;;;47.40;26.73;;;;;;;;;;1731493;80;21123;-71
2022/09/06 13:21:10;;;;;;;39.88;22.20;;;;;;;;;;1794682;79;23689;-71
2022/09/06 13:23:41;;;;;;;40.78;21.77;;;;;;;;;;1797539;79;21026;-73
2022/09/06 13:26:07;;;;;;;37.28;21.30;;;;;;;;;;1772843;80;21107;-72
2022/09/06 13:28:33;;;;;;;37.45;22.70;;;;;;;;;;1761106;80;21016;-74
2022/09/06 13:31:04;;;;;;;36.35;22.05;;;;;;;;;;1761415;80;21047;-73
2022/09/06 13:33:30;;;;;;;37.93;21.95;;;;;;;;;;1756943;80;21035;-71
2022/09/06 13:36:04;;;;;;;37.13;22.45;;;;;;;;;;1755635;80;21132;-75
2022/09/06 13:38:32;;;;;;;35.88;21.55;;;;;;;;;;1771775;80;21487;-70
2022/09/06 13:40:59;;;;;;;40.23;21.82;;;;;;;;;;1772365;80;21067;-71
2022/09/06 13:43:25;;;;;;;42.40;24.72;;;;;;;;;;1768518;80;21023;-73
2022/09/06 13:46:05;;;;;;;41.80;23.77;;;;;;;;;;1763160;80;21052;-71
2022/09/06 13:48:31;;;;;;;47.03;23.92;;;;;;;;;;1757757;80;21073;-73
2022/09/06 13:50:57;;;;;;;40.10;24.50;;;;;;;;;;1780009;80;21055;-74
2022/09/06 13:53:23;;;;;;;44.03;27.27;;;;;;;;;;1776904;80;21040;-73
2022/09/06 13:55:51;;;;;;;40.43;22.05;;;;;;;;;;1762645;80;20972;-71
2022/09/06 13:58:17;;;;;;;45.75;24.15;;;;;;;;;;1763674;79;21012;-72
2022/09/06 14:00:44;;;;;;;38.70;21.33;;;;;;;;;;1758255;80;20992;-71
2022/09/06 14:03:11;;;;;;;36.53;22.55;;;;;;;;;;1751665;80;21055;-72
2022/09/06 14:05:38;;;;;;;32.35;19.40;;;;;;;;;;1754256;80;21054;-71
2022/09/06 14:08:04;;;;;;;29.92;20.17;;;;;;;;;;1763748;80;21066;-71
2022/09/06 14:10:32;;;;;;;30.40;19.30;;;;;;;;;;1763278;80;21000;-74
2022/09/06 14:13:01;;;;;;;30.95;18.37;;;;;;;;;;1754791;80;21130;-76
2022/09/06 14:15:28;;;;;;;33.33;22.22;;;;;;;;;;1748054;82;21874;-75
2022/09/06 14:17:54;;;;;;;28.52;16.20;;;;;;;;;;1745920;81;21092;-75
2022/09/06 14:20:20;;;;;;;29.92;15.38;;;;;;;;;;1751184;81;21059;-77
2022/09/06 14:22:46;;;;;;;29.95;17.27;;;;;;;;;;1755982;80;21058;-76
2022/09/06 14:25:12;;;;;;;24.35;15.35;;;;;;;;;;1753735;81;20980;-77
2022/09/06 14:27:39;;;;;;;28.60;16.27;;;;;;;;;;1756687;81;21016;-76
2022/09/06 14:30:06;;;;;;;29.35;18.02;;;;;;;;;;1753225;82;21064;-74
2022/09/06 14:32:32;;;;;;;24.27;15.10;;;;;;;;;;1760360;80;21079;-75
2022/09/06 14:35:00;;;;;;;27.25;16.67;;;;;;;;;;1758963;80;21036;-74
2022/09/06 14:37:27;;;;;;;34.75;18.52;;;;;;;;;;1760182;80;21535;-71
2022/09/06 14:39:54;;;;;;;82.67;52.33;;;;;;;;;;1773595;80;21575;-69
2022/09/06 14:42:23;;;;;;;53.73;35.75;;;;;;;;;;1776137;80;21526;-70
2022/09/06 14:44:48;;;;;;;31.15;18.10;;;;;;;;;;1762761;80;21317;-73
2022/09/06 14:47:14;;;;;;;30.92;17.98;;;;;;;;;;1767388;81;21031;-73
2022/09/06 14:49:40;;;;;;;28.35;15.90;;;;;;;;;;1762600;80;21023;-73
2022/09/06 14:52:07;;;;;;;34.63;19.37;;;;;;;;;;1760192;81;21044;-73
2022/09/06 14:54:35;;;;;;;32.50;19.62;;;;;;;;;;1753080;80;21028;-73
2022/09/06 14:57:01;;;;;;;36.70;20.65;;;;;;;;;;1757540;81;21019;-72